Time;durP1;ratioP1;P1;durP2;ratioP2;P2;SDS_P1;SDS_P2;PMS_P1;PMS_P2;Temp;Humidity;BMP_temperature;BMP_pressure;BME280_temperature;BME280_humidity;BME280_pressure;Samples;Min_cycle;Max_cycle;Signal;HPM_P1;HPM_P2
2021/03/06 00:00:22;;;;;;;182.18;86.65;;;4.00;70.60;;;;;;4975175;28;20137;-80
2021/03/06 00:02:48;;;;;;;181.18;86.32;;;4.00;70.90;;;;;;4974936;28;20042;-80
2021/03/06 00:05:14;;;;;;;110.70;55.88;;;3.90;71.20;;;;;;4975223;28;20038;-80
2021/03/06 00:07:40;;;;;;;168.60;78.90;;;3.90;71.40;;;;;;4976191;28;20045;-81
2021/03/06 00:10:11;;;;;;;88.75;45.72;;;3.90;71.50;;;;;;4976351;28;20061;-80
2021/03/06 00:12:39;;;;;;;54.78;28.13;;;3.90;71.50;;;;;;4975282;28;20051;-80
2021/03/06 00:15:06;;;;;;;59.58;33.10;;;3.80;71.40;;;;;;4975611;28;20469;-80
2021/03/06 00:17:31;;;;;;;44.20;23.05;;;3.80;71.40;;;;;;4975176;28;20439;-80
2021/03/06 00:19:57;;;;;;;168.93;77.07;;;3.80;71.40;;;;;;4983995;28;20054;-81
2021/03/06 00:22:23;;;;;;;32.20;18.27;;;3.80;71.40;;;;;;4983952;28;20050;-80
2021/03/06 00:24:49;;;;;;;32.92;17.25;;;3.80;71.30;;;;;;4980255;28;20512;-80
2021/03/06 00:27:15;;;;;;;30.42;17.27;;;3.70;71.60;;;;;;4977948;28;20035;-80
2021/03/06 00:29:40;;;;;;;27.27;15.40;;;3.70;71.80;;;;;;4977060;28;20046;-80
2021/03/06 00:32:06;;;;;;;27.27;17.13;;;3.70;71.90;;;;;;4977355;28;20519;-80
2021/03/06 00:34:32;;;;;;;35.22;17.70;;;3.70;72.50;;;;;;4977228;28;20098;-80
2021/03/06 00:36:58;;;;;;;27.40;15.73;;;3.60;72.00;;;;;;4976458;28;20042;-81
2021/03/06 00:39:24;;;;;;;26.15;15.43;;;3.60;71.80;;;;;;4975835;28;20031;-80
2021/03/06 00:41:49;;;;;;;28.80;15.15;;;3.60;71.80;;;;;;4975511;28;20038;-80
2021/03/06 00:44:15;;;;;;;26.48;15.23;;;3.60;71.80;;;;;;4974258;28;20365;-79
2021/03/06 00:46:41;;;;;;;28.10;15.65;;;3.60;71.90;;;;;;4974298;28;20074;-79
2021/03/06 00:49:07;;;;;;;26.25;15.75;;;3.60;71.70;;;;;;4974047;28;20027;-79
2021/03/06 00:51:33;;;;;;;29.10;16.73;;;3.60;71.80;;;;;;4975616;28;20053;-79
2021/03/06 00:53:58;;;;;;;25.58;15.18;;;3.60;71.80;;;;;;4974590;28;20045;-80
2021/03/06 00:56:24;;;;;;;29.08;15.93;;;3.60;72.00;;;;;;4974401;28;20487;-80
2021/03/06 00:58:50;;;;;;;26.90;14.40;;;3.50;72.00;;;;;;4974220;28;20035;-79
2021/03/06 01:01:16;;;;;;;29.08;15.40;;;3.50;72.10;;;;;;4974508;28;20038;-79
2021/03/06 01:03:42;;;;;;;25.75;14.73;;;3.40;72.20;;;;;;4979097;28;20072;-79
2021/03/06 01:06:08;;;;;;;22.88;13.77;;;3.50;72.10;;;;;;4979769;28;20046;-80
2021/03/06 01:08:34;;;;;;;23.77;13.35;;;3.50;71.80;;;;;;4977563;28;20510;-79
2021/03/06 01:11:01;;;;;;;23.00;13.13;;;3.40;71.80;;;;;;4989633;28;20049;-79
2021/03/06 01:13:28;;;;;;;24.63;13.10;;;3.40;71.90;;;;;;4978766;28;20042;-79
2021/03/06 01:15:54;;;;;;;25.92;12.95;;;3.40;71.90;;;;;;4977993;28;20093;-79
2021/03/06 01:18:20;;;;;;;24.50;14.25;;;3.40;72.10;;;;;;4979236;28;20042;-79
2021/03/06 01:20:46;;;;;;;28.65;13.50;;;3.40;71.90;;;;;;4977537;28;20089;-79
2021/03/06 01:23:12;;;;;;;22.50;12.45;;;3.40;71.70;;;;;;4979135;28;20515;-79
2021/03/06 01:25:39;;;;;;;22.23;11.82;;;3.40;71.70;;;;;;4979057;28;20053;-79
2021/03/06 01:28:06;;;;;;;22.65;13.70;;;3.30;71.70;;;;;;4978289;28;20113;-79
2021/03/06 01:30:32;;;;;;;22.58;12.68;;;3.30;71.70;;;;;;4979410;28;20101;-79
2021/03/06 01:32:58;;;;;;;19.88;11.80;;;3.30;71.50;;;;;;4986096;28;20049;-78
2021/03/06 01:35:25;;;;;;;25.38;12.80;;;3.30;71.60;;;;;;4984984;28;20062;-78
2021/03/06 01:37:52;;;;;;;22.13;12.32;;;3.30;71.40;;;;;;4983905;28;20054;-79
2021/03/06 01:40:31;;;;;;;24.27;12.68;;;3.30;71.50;;;;;;4977760;28;20047;-79
2021/03/06 01:42:58;;;;;;;22.55;12.57;;;3.20;71.40;;;;;;4993549;28;20042;-79
2021/03/06 01:45:24;;;;;;;23.98;12.65;;;3.20;71.20;;;;;;4977696;28;20035;-79
2021/03/06 01:47:51;;;;;;;22.70;11.63;;;3.30;71.10;;;;;;4977012;28;20042;-79
2021/03/06 01:50:31;;;;;;;23.10;11.80;;;3.20;71.30;;;;;;4978820;28;20167;-80
2021/03/06 01:52:58;;;;;;;22.20;11.70;;;3.20;71.30;;;;;;4975462;28;20113;-80
2021/03/06 01:55:27;;;;;;;22.40;12.25;;;3.20;71.40;;;;;;4978046;28;20121;-79
2021/03/06 01:57:53;;;;;;;21.23;11.93;;;3.20;71.30;;;;;;4962322;28;20097;-80
2021/03/06 02:00:23;;;;;;;24.33;12.85;;;3.20;71.50;;;;;;4976997;28;20086;-79
2021/03/06 02:02:50;;;;;;;21.85;11.80;;;3.20;71.60;;;;;;4977237;28;20137;-80
2021/03/06 02:05:16;;;;;;;22.85;12.70;;;3.10;71.70;;;;;;4976637;28;20570;-79
2021/03/06 02:07:44;;;;;;;22.48;13.25;;;3.10;72.30;;;;;;4976348;28;20078;-79
2021/03/06 02:10:12;;;;;;;28.42;13.95;;;3.10;72.00;;;;;;4976329;28;20117;-79
2021/03/06 02:13:00;;;;;;;23.55;12.48;;;3.10;72.10;;;;;;4975031;28;20050;-79
2021/03/06 02:15:28;;;;;;;24.85;12.93;;;3.00;72.40;;;;;;4976386;28;20634;-80
2021/03/06 02:18:05;;;;;;;24.60;12.85;;;3.00;72.60;;;;;;4976621;28;20093;-79
2021/03/06 02:20:55;;;;;;;25.83;13.68;;;3.00;72.90;;;;;;4977224;28;20062;-79
2021/03/06 02:23:48;;;;;;;23.77;13.63;;;2.90;73.00;;;;;;4993116;28;20460;-79
2021/03/06 02:26:29;;;;;;;24.35;13.23;;;2.90;73.40;;;;;;4976738;28;20042;-79
2021/03/06 02:29:33;;;;;;;22.67;14.10;;;2.80;73.40;;;;;;4976698;28;20165;-79
2021/03/06 02:32:03;;;;;;;24.23;12.77;;;2.80;73.60;;;;;;4978434;28;20093;-79
2021/03/06 02:34:31;;;;;;;24.30;13.40;;;2.80;73.70;;;;;;4978013;28;20038;-79
2021/03/06 02:37:01;;;;;;;30.02;13.98;;;2.80;73.70;;;;;;4993083;28;20041;-79
2021/03/06 02:39:31;;;;;;;25.98;14.75;;;2.80;73.60;;;;;;4977771;28;20439;-79
2021/03/06 02:41:58;;;;;;;26.55;14.38;;;2.80;73.70;;;;;;4976638;28;20046;-79
2021/03/06 02:44:28;;;;;;;25.63;14.10;;;2.80;73.90;;;;;;4981015;28;20062;-79
2021/03/06 02:46:56;;;;;;;30.38;14.95;;;2.70;73.80;;;;;;4982924;28;20039;-78
2021/03/06 02:49:22;;;;;;;27.52;13.65;;;2.80;73.80;;;;;;4983555;28;20026;-79
2021/03/06 02:51:48;;;;;;;27.77;14.00;;;2.70;73.90;;;;;;4979065;28;20041;-79
2021/03/06 02:54:15;;;;;;;23.30;13.50;;;2.70;73.80;;;;;;4976501;28;20085;-79
2021/03/06 02:56:41;;;;;;;25.38;13.48;;;2.70;74.00;;;;;;4977241;28;20460;-79
2021/03/06 02:59:43;;;;;;;21.98;13.27;;;2.70;73.80;;;;;;4997186;28;20034;-79
2021/03/06 03:02:30;;;;;;;25.77;13.75;;;2.70;73.90;;;;;;4977714;28;20045;-79
2021/03/06 03:05:16;;;;;;;27.05;14.35;;;2.70;73.90;;;;;;4976050;28;20027;-79
2021/03/06 03:08:03;;;;;;;25.65;14.35;;;2.70;73.90;;;;;;4975890;28;20046;-79
2021/03/06 03:10:32;;;;;;;24.83;13.35;;;2.60;74.00;;;;;;4979684;28;20034;-78
2021/03/06 03:13:28;;;;;;;23.40;13.30;;;2.60;73.90;;;;;;4997886;28;20504;-79
2021/03/06 03:16:22;;;;;;;27.95;13.60;;;2.70;73.60;;;;;;4997663;28;20046;-78
2021/03/06 03:18:53;;;;;;;24.30;12.73;;;2.70;73.50;;;;;;4996256;28;20141;-78
2021/03/06 03:21:22;;;;;;;25.92;13.82;;;2.60;73.50;;;;;;4979890;28;20053;-78
2021/03/06 03:24:12;;;;;;;27.10;14.38;;;2.70;73.60;;;;;;4975935;28;20057;-79
2021/03/06 03:26:39;;;;;;;24.40;13.30;;;2.70;73.50;;;;;;4975476;28;20484;-79
2021/03/06 03:29:07;;;;;;;23.73;13.70;;;2.60;73.70;;;;;;4976003;28;20026;-79
2021/03/06 03:31:35;;;;;;;24.60;14.13;;;2.60;73.70;;;;;;4976769;28;20034;-78
2021/03/06 03:34:04;;;;;;;24.92;14.13;;;2.60;73.70;;;;;;4977155;28;20050;-79
2021/03/06 03:36:31;;;;;;;20.73;12.63;;;2.60;73.50;;;;;;4992839;28;20046;-79
2021/03/06 03:38:57;;;;;;;23.58;13.20;;;2.60;73.30;;;;;;4975747;28;20092;-79
2021/03/06 03:41:24;;;;;;;28.85;13.65;;;2.50;73.60;;;;;;4976889;28;20043;-79
2021/03/06 03:43:50;;;;;;;27.08;14.57;;;2.50;73.80;;;;;;4991747;28;20031;-79
2021/03/06 03:46:17;;;;;;;22.88;13.30;;;2.50;73.90;;;;;;4976359;28;20035;-79
2021/03/06 03:48:44;;;;;;;24.52;12.98;;;2.50;74.10;;;;;;4975372;28;20041;-79
2021/03/06 03:51:11;;;;;;;25.85;12.70;;;2.50;74.10;;;;;;4975536;28;20038;-79
2021/03/06 03:53:38;;;;;;;23.25;12.52;;;2.50;73.90;;;;;;4977319;28;20041;-79
2021/03/06 03:56:06;;;;;;;27.08;13.40;;;2.50;74.00;;;;;;4976957;28;20039;-79
2021/03/06 03:58:32;;;;;;;25.58;13.27;;;2.40;73.90;;;;;;4979076;28;20054;-79
2021/03/06 04:00:59;;;;;;;26.08;12.98;;;2.50;74.00;;;;;;4983610;28;20107;-79
2021/03/06 04:03:27;;;;;;;21.98;12.75;;;2.40;74.10;;;;;;4998598;28;20031;-79
2021/03/06 04:05:52;;;;;;;24.45;13.63;;;2.40;74.30;;;;;;4978214;28;20038;-79
2021/03/06 04:08:18;;;;;;;23.92;13.30;;;2.40;74.40;;;;;;4976762;28;20118;-79
2021/03/06 04:10:44;;;;;;;24.13;12.98;;;2.40;74.40;;;;;;4975178;28;20121;-79
2021/03/06 04:13:10;;;;;;;25.65;12.90;;;2.40;74.50;;;;;;4976547;28;20070;-79
2021/03/06 04:15:37;;;;;;;23.30;12.82;;;2.30;74.60;;;;;;4975590;28;20081;-80
2021/03/06 04:18:07;;;;;;;24.92;13.00;;;2.40;74.50;;;;;;4974602;28;20192;-79
2021/03/06 04:20:33;;;;;;;25.30;13.85;;;2.40;74.30;;;;;;4974435;28;20058;-79
2021/03/06 04:22:59;;;;;;;31.92;13.15;;;2.40;74.10;;;;;;4974975;28;20041;-79
2021/03/06 04:25:26;;;;;;;25.80;13.38;;;2.40;73.90;;;;;;4976036;28;20073;-79
2021/03/06 04:27:52;;;;;;;25.35;13.00;;;2.50;73.50;;;;;;4974664;28;20239;-80
2021/03/06 04:30:18;;;;;;;28.48;14.95;;;2.50;73.40;;;;;;4975398;28;20387;-79
2021/03/06 04:32:44;;;;;;;26.38;13.63;;;2.50;73.40;;;;;;4975644;28;20042;-80
2021/03/06 04:35:11;;;;;;;23.17;12.90;;;2.50;73.40;;;;;;4975821;28;20046;-79
2021/03/06 04:37:39;;;;;;;24.65;13.50;;;2.50;73.40;;;;;;4975211;28;20042;-80
2021/03/06 04:40:07;;;;;;;24.42;12.52;;;2.50;73.40;;;;;;4974677;28;20043;-79
2021/03/06 04:42:32;;;;;;;24.10;13.30;;;2.50;73.30;;;;;;4974561;28;20039;-79
2021/03/06 04:44:58;;;;;;;22.98;13.05;;;2.50;73.30;;;;;;4975802;28;20039;-80
2021/03/06 04:47:24;;;;;;;25.00;13.40;;;2.50;73.30;;;;;;4974257;28;20058;-80
2021/03/06 04:49:50;;;;;;;25.23;13.70;;;2.50;73.40;;;;;;4974657;28;20035;-80
2021/03/06 04:52:16;;;;;;;23.45;13.60;;;2.40;73.30;;;;;;4975644;28;20035;-80
2021/03/06 04:54:44;;;;;;;27.92;14.82;;;2.50;73.20;;;;;;4975897;28;20050;-80
2021/03/06 04:57:13;;;;;;;25.27;13.93;;;2.40;73.10;;;;;;4975724;28;20039;-80
2021/03/06 04:59:43;;;;;;;28.25;14.27;;;2.50;73.10;;;;;;4974514;28;20039;-79
2021/03/06 05:02:09;;;;;;;28.77;14.48;;;2.50;73.20;;;;;;4974269;28;20043;-80
2021/03/06 05:04:35;;;;;;;27.20;14.45;;;2.40;73.30;;;;;;4974181;28;20034;-80
2021/03/06 05:07:01;;;;;;;27.75;14.68;;;2.40;73.40;;;;;;4974968;28;20551;-80
2021/03/06 05:09:27;;;;;;;25.67;14.50;;;2.40;73.40;;;;;;4975512;28;20460;-80
2021/03/06 05:11:53;;;;;;;28.50;15.15;;;2.40;73.60;;;;;;4977272;28;20038;-80
2021/03/06 05:14:19;;;;;;;26.48;14.98;;;2.40;73.50;;;;;;4982583;28;20039;-79
2021/03/06 05:16:45;;;;;;;27.88;15.32;;;2.40;73.60;;;;;;4982775;28;20061;-79
2021/03/06 05:19:12;;;;;;;27.67;14.73;;;2.30;73.50;;;;;;4980759;28;20492;-80
2021/03/06 05:21:38;;;;;;;26.23;14.60;;;2.30;73.80;;;;;;4975950;28;20027;-79
2021/03/06 05:24:05;;;;;;;28.02;14.25;;;2.30;74.00;;;;;;4975892;28;20039;-79
2021/03/06 05:26:31;;;;;;;28.67;14.48;;;2.30;73.90;;;;;;4974320;28;20130;-80
2021/03/06 05:28:56;;;;;;;26.17;14.23;;;2.30;73.90;;;;;;4974104;28;20559;-80
2021/03/06 05:31:22;;;;;;;27.45;15.23;;;2.30;73.70;;;;;;4990582;28;20516;-80
2021/03/06 05:33:48;;;;;;;29.70;15.82;;;2.30;73.80;;;;;;4975365;28;20053;-80
2021/03/06 05:36:14;;;;;;;27.42;14.70;;;2.30;73.90;;;;;;4974429;28;20129;-80
2021/03/06 05:38:40;;;;;;;28.25;15.10;;;2.30;73.80;;;;;;4974280;28;20050;-80
2021/03/06 05:41:06;;;;;;;26.67;14.95;;;2.30;73.70;;;;;;4975383;28;20047;-80
2021/03/06 05:43:33;;;;;;;28.77;15.38;;;2.30;73.90;;;;;;4974268;28;20046;-79
2021/03/06 05:45:59;;;;;;;26.90;14.85;;;2.30;73.70;;;;;;4975396;28;20035;-79
2021/03/06 05:48:25;;;;;;;28.10;14.57;;;2.30;73.90;;;;;;4977315;28;20047;-79
2021/03/06 05:50:52;;;;;;;30.92;14.30;;;2.30;73.80;;;;;;4994013;28;20455;-80
2021/03/06 05:53:21;;;;;;;27.95;14.93;;;2.30;73.80;;;;;;4978089;28;20412;-79
2021/03/06 05:55:56;;;;;;;28.48;14.80;;;2.30;74.00;;;;;;4994190;28;20543;-79
2021/03/06 05:58:22;;;;;;;27.73;15.68;;;2.30;74.20;;;;;;4979163;28;20046;-79
2021/03/06 06:00:49;;;;;;;29.77;15.90;;;2.30;74.10;;;;;;4977838;28;20042;-79
2021/03/06 06:03:20;;;;;;;30.63;16.48;;;2.30;74.30;;;;;;4977617;28;20047;-80
2021/03/06 06:05:48;;;;;;;32.38;15.57;;;2.30;74.20;;;;;;4978763;28;20029;-80
2021/03/06 06:08:15;;;;;;;32.78;16.48;;;2.20;74.20;;;;;;4978934;28;20561;-80
2021/03/06 06:10:41;;;;;;;31.92;15.52;;;2.20;74.20;;;;;;4977608;28;20042;-80
2021/03/06 06:13:07;;;;;;;31.60;17.65;;;2.30;74.40;;;;;;4977620;28;20043;-80
2021/03/06 06:15:33;;;;;;;31.55;15.93;;;2.30;74.40;;;;;;4979334;28;20414;-80
2021/03/06 06:17:59;;;;;;;27.80;15.95;;;2.20;74.70;;;;;;4978449;28;20054;-80
2021/03/06 06:20:25;;;;;;;35.70;16.88;;;2.20;74.90;;;;;;4978605;28;20055;-80
2021/03/06 06:23:26;;;;;;;33.55;16.40;;;2.20;74.90;;;;;;4977375;28;20122;-80
2021/03/06 06:25:52;;;;;;;33.28;15.77;;;2.10;75.10;;;;;;4976493;28;20510;-79
2021/03/06 06:28:19;;;;;;;31.10;16.92;;;2.20;75.10;;;;;;4985507;28;20039;-80
2021/03/06 06:31:22;;;;;;;36.88;17.30;;;2.10;75.00;;;;;;4985141;28;20134;-80
2021/03/06 06:33:47;;;;;;;29.63;15.52;;;2.10;75.20;;;;;;4982374;28;20039;-80
2021/03/06 06:36:38;;;;;;;35.30;17.42;;;2.10;75.20;;;;;;4978526;28;20134;-80
2021/03/06 06:39:08;;;;;;;32.53;17.02;;;2.10;75.40;;;;;;4993056;28;20483;-81
2021/03/06 06:41:49;;;;;;;32.60;17.42;;;2.10;75.40;;;;;;4978338;28;20047;-81
2021/03/06 06:44:15;;;;;;;30.80;17.10;;;2.10;75.60;;;;;;4978133;28;20049;-81
2021/03/06 06:46:41;;;;;;;55.00;21.02;;;2.10;75.60;;;;;;4978428;28;20200;-80
2021/03/06 06:49:07;;;;;;;31.85;16.73;;;2.00;75.90;;;;;;4978016;28;20049;-81
2021/03/06 06:51:33;;;;;;;34.17;16.70;;;2.10;75.80;;;;;;4976993;28;20446;-80
2021/03/06 06:54:10;;;;;;;35.75;18.70;;;2.10;75.80;;;;;;4976892;28;20391;-80
2021/03/06 06:56:36;;;;;;;34.72;17.33;;;2.10;75.70;;;;;;4977726;28;20496;-80
2021/03/06 06:59:08;;;;;;;31.10;16.65;;;2.10;75.70;;;;;;4976015;28;20057;-80
2021/03/06 07:01:36;;;;;;;33.90;17.48;;;2.10;75.80;;;;;;4977295;28;20093;-80
2021/03/06 07:04:10;;;;;;;33.42;17.85;;;2.10;75.80;;;;;;4976436;28;20072;-80
2021/03/06 07:06:37;;;;;;;37.55;18.80;;;2.10;76.10;;;;;;4977751;28;20086;-81
2021/03/06 07:09:09;;;;;;;31.00;16.55;;;2.10;76.00;;;;;;4976057;28;20035;-80
2021/03/06 07:11:37;;;;;;;32.58;17.17;;;2.10;75.80;;;;;;4976666;28;20559;-80
2021/03/06 07:14:03;;;;;;;35.92;17.67;;;2.20;75.80;;;;;;4982205;28;20483;-79
2021/03/06 07:16:57;;;;;;;31.23;17.90;;;2.20;75.80;;;;;;4980238;28;20093;-80
2021/03/06 07:19:25;;;;;;;33.00;18.25;;;2.30;75.70;;;;;;4996420;28;20054;-79
2021/03/06 07:21:51;;;;;;;37.53;19.08;;;2.30;75.40;;;;;;4996703;28;20507;-80
2021/03/06 07:24:18;;;;;;;37.63;19.45;;;2.40;75.20;;;;;;4996414;28;20077;-80
2021/03/06 07:26:44;;;;;;;31.45;17.80;;;2.40;75.00;;;;;;4995081;28;20045;-80
2021/03/06 07:29:10;;;;;;;36.20;19.20;;;2.50;74.90;;;;;;4981807;28;20031;-79
2021/03/06 07:31:40;;;;;;;31.90;18.13;;;2.50;74.40;;;;;;4957584;29;20042;-80
2021/03/06 07:34:09;;;;;;;32.38;18.50;;;2.60;74.10;;;;;;4972435;28;20035;-80
2021/03/06 07:36:37;;;;;;;32.67;17.67;;;2.70;74.00;;;;;;4957615;29;20047;-80
2021/03/06 07:39:05;;;;;;;31.55;17.67;;;2.70;73.80;;;;;;4957624;28;20043;-80
2021/03/06 07:41:39;;;;;;;35.63;17.83;;;2.80;73.40;;;;;;4975227;28;20053;-80
2021/03/06 07:44:06;;;;;;;35.78;17.75;;;2.90;73.20;;;;;;4962755;29;20063;-77
2021/03/06 07:46:39;;;;;;;36.72;19.15;;;3.00;72.80;;;;;;4960234;28;20031;-76
2021/03/06 07:49:12;;;;;;;33.55;18.23;;;3.00;72.30;;;;;;4959550;28;20047;-76
2021/03/06 07:51:45;;;;;;;38.47;18.95;;;3.10;72.60;;;;;;4957207;28;20062;-76
2021/03/06 07:54:14;;;;;;;33.17;17.48;;;3.20;71.90;;;;;;4971957;28;20051;-77
2021/03/06 07:56:41;;;;;;;33.72;18.33;;;3.20;71.80;;;;;;4972067;28;20035;-76
2021/03/06 07:59:08;;;;;;;34.95;17.80;;;3.30;71.60;;;;;;4962755;28;20043;-76
2021/03/06 08:01:35;;;;;;;31.30;17.85;;;3.30;71.60;;;;;;4975345;28;20039;-76
2021/03/06 08:04:05;;;;;;;32.88;18.42;;;3.40;71.90;;;;;;4975970;28;20046;-76
2021/03/06 08:06:33;;;;;;;34.13;18.20;;;3.60;71.00;;;;;;4976730;28;20042;-76
2021/03/06 08:09:05;;;;;;;34.75;18.77;;;3.60;70.60;;;;;;4975067;28;20031;-77
2021/03/06 08:11:34;;;;;;;34.47;18.40;;;3.70;70.80;;;;;;4976317;28;20046;-77
2021/03/06 08:14:04;;;;;;;35.08;19.25;;;3.80;70.80;;;;;;4976671;28;20130;-77
2021/03/06 08:16:31;;;;;;;33.50;18.80;;;3.80;70.50;;;;;;4975148;28;20062;-76
2021/03/06 08:19:13;;;;;;;32.80;19.98;;;3.80;70.40;;;;;;4975798;28;20046;-76
2021/03/06 08:21:50;;;;;;;32.97;18.60;;;4.00;69.90;;;;;;4976874;28;20463;-77
2021/03/06 08:24:16;;;;;;;32.30;18.45;;;4.20;69.10;;;;;;4990657;28;20399;-77
2021/03/06 08:26:51;;;;;;;38.40;20.02;;;4.30;68.60;;;;;;4975735;28;20043;-76
2021/03/06 08:29:23;;;;;;;36.28;19.35;;;4.30;68.40;;;;;;4976162;28;20066;-75
2021/03/06 08:32:17;;;;;;;32.40;17.77;;;4.50;68.00;;;;;;4976163;28;20035;-76
2021/03/06 08:34:48;;;;;;;32.10;18.73;;;4.50;67.50;;;;;;4990809;28;20125;-77
2021/03/06 08:37:14;;;;;;;35.03;18.70;;;4.60;67.10;;;;;;4976105;28;20035;-77
2021/03/06 08:39:50;;;;;;;30.63;18.42;;;4.70;67.20;;;;;;4974895;28;20090;-77
2021/03/06 08:42:18;;;;;;;45.88;19.95;;;4.80;67.10;;;;;;4974354;28;20043;-77
2021/03/06 08:44:45;;;;;;;32.22;19.15;;;4.90;66.80;;;;;;4975294;28;20042;-76
2021/03/06 08:47:11;;;;;;;33.88;19.52;;;4.90;66.60;;;;;;4976102;28;20089;-76
2021/03/06 08:49:37;;;;;;;34.45;18.95;;;5.00;66.50;;;;;;4974815;28;20420;-76
2021/03/06 08:52:04;;;;;;;36.47;20.40;;;5.00;66.30;;;;;;4975823;28;20068;-77
2021/03/06 08:54:40;;;;;;;31.40;19.23;;;5.10;66.40;;;;;;4975750;28;20110;-78
2021/03/06 08:57:47;;;;;;;32.67;18.95;;;5.20;65.90;;;;;;4978743;28;20034;-78
2021/03/06 09:00:20;;;;;;;33.50;18.98;;;5.30;65.50;;;;;;4978758;28;20049;-77
2021/03/06 09:02:46;;;;;;;30.23;18.10;;;5.30;65.50;;;;;;4980624;28;20117;-78
2021/03/06 09:05:21;;;;;;;29.30;18.65;;;5.40;65.30;;;;;;4974032;28;20132;-77
2021/03/06 09:07:52;;;;;;;33.35;18.85;;;5.60;64.70;;;;;;4975731;28;20097;-77
2021/03/06 09:10:27;;;;;;;32.33;19.13;;;5.50;65.40;;;;;;4975007;28;20066;-78
2021/03/06 09:13:12;;;;;;;31.65;18.75;;;5.60;64.60;;;;;;4975440;28;20175;-78
2021/03/06 09:15:42;;;;;;;34.50;19.77;;;5.80;64.70;;;;;;4975874;28;20118;-77
2021/03/06 09:18:12;;;;;;;32.88;19.15;;;6.00;64.20;;;;;;4975951;28;20050;-78
2021/03/06 09:20:59;;;;;;;36.28;20.13;;;6.10;63.50;;;;;;4975790;28;20055;-78
2021/03/06 09:23:39;;;;;;;32.35;18.45;;;6.20;63.60;;;;;;4981050;28;20086;-78
2021/03/06 09:26:17;;;;;;;30.48;18.02;;;6.30;62.70;;;;;;4981092;28;20443;-77
2021/03/06 09:28:44;;;;;;;34.75;19.35;;;6.30;62.90;;;;;;4979642;28;20046;-78
2021/03/06 09:31:27;;;;;;;29.92;19.00;;;6.50;62.70;;;;;;4977815;28;20038;-77
2021/03/06 09:33:54;;;;;;;31.55;19.00;;;6.60;62.30;;;;;;4977890;28;20369;-80
2021/03/06 09:36:22;;;;;;;32.22;18.95;;;6.80;61.70;;;;;;4978208;28;20043;-78
2021/03/06 09:38:52;;;;;;;30.92;19.60;;;6.80;62.60;;;;;;4977914;28;20503;-76
2021/03/06 09:41:24;;;;;;;29.40;19.52;;;6.90;61.90;;;;;;4979011;28;20488;-76
2021/03/06 09:43:56;;;;;;;29.23;18.63;;;7.00;61.60;;;;;;4977602;28;20125;-77
2021/03/06 09:46:25;;;;;;;30.25;19.40;;;7.20;61.00;;;;;;4978900;28;20047;-77
2021/03/06 09:48:54;;;;;;;30.63;19.45;;;7.30;60.50;;;;;;4977393;28;20468;-77
2021/03/06 09:51:22;;;;;;;32.13;19.30;;;7.20;60.60;;;;;;4978638;28;20035;-77
2021/03/06 09:53:59;;;;;;;31.98;18.88;;;7.20;60.80;;;;;;4977215;28;20041;-76
2021/03/06 09:56:25;;;;;;;27.23;18.73;;;7.20;61.20;;;;;;4977281;28;20127;-76
2021/03/06 09:58:58;;;;;;;31.65;19.90;;;7.40;60.90;;;;;;4978734;28;20121;-76
2021/03/06 10:01:24;;;;;;;34.65;19.35;;;7.60;59.90;;;;;;4978696;28;20053;-78
2021/03/06 10:03:51;;;;;;;31.10;18.60;;;7.70;59.90;;;;;;4977057;28;20042;-76
2021/03/06 10:06:31;;;;;;;28.02;18.70;;;7.80;59.40;;;;;;4978485;28;20488;-76
2021/03/06 10:08:58;;;;;;;34.28;18.90;;;8.00;59.10;;;;;;4978554;28;20126;-76
2021/03/06 10:11:29;;;;;;;29.20;18.58;;;8.00;59.20;;;;;;4979778;28;20042;-75
2021/03/06 10:13:56;;;;;;;30.90;19.42;;;8.00;59.10;;;;;;4980598;28;20043;-72
2021/03/06 10:16:22;;;;;;;29.20;17.88;;;8.10;59.00;;;;;;4980401;28;20199;-76
2021/03/06 10:18:48;;;;;;;27.02;18.38;;;8.30;58.60;;;;;;4978428;28;20042;-76
2021/03/06 10:21:17;;;;;;;30.38;19.10;;;8.60;58.00;;;;;;4977046;28;20046;-75
2021/03/06 10:23:44;;;;;;;27.45;18.67;;;8.60;57.70;;;;;;4971291;28;20039;-74
2021/03/06 10:26:22;;;;;;;29.90;18.15;;;8.50;58.10;;;;;;4990516;28;20041;-74
2021/03/06 10:28:50;;;;;;;29.75;19.00;;;8.50;58.30;;;;;;4977445;28;20062;-75
2021/03/06 10:31:30;;;;;;;32.20;20.45;;;8.60;57.50;;;;;;4977467;28;20105;-75
2021/03/06 10:33:57;;;;;;;28.98;19.17;;;8.80;57.40;;;;;;4977959;28;20054;-74
2021/03/06 10:36:24;;;;;;;29.60;19.80;;;8.80;57.10;;;;;;4965826;28;20051;-75
2021/03/06 10:38:51;;;;;;;26.45;17.33;;;9.00;57.00;;;;;;4981596;28;20062;-76
2021/03/06 10:41:23;;;;;;;25.35;17.52;;;9.30;56.20;;;;;;4978405;28;20093;-76
2021/03/06 10:43:55;;;;;;;32.05;19.15;;;9.60;54.90;;;;;;4976485;28;20492;-76
2021/03/06 10:46:34;;;;;;;25.73;17.33;;;9.80;54.90;;;;;;4977566;28;20594;-76
2021/03/06 10:49:09;;;;;;;32.15;19.80;;;10.00;54.50;;;;;;4975906;28;20049;-76
2021/03/06 10:51:53;;;;;;;29.30;18.75;;;10.00;54.50;;;;;;4977241;28;20126;-76
2021/03/06 10:54:22;;;;;;;26.90;18.60;;;10.10;54.00;;;;;;4976876;28;20043;-75
2021/03/06 10:57:01;;;;;;;28.52;18.08;;;10.20;53.70;;;;;;4976067;28;20377;-75
2021/03/06 10:59:36;;;;;;;54.58;27.10;;;10.10;53.50;;;;;;4977218;28;20460;-76
2021/03/06 11:02:02;;;;;;;52.90;27.13;;;10.10;53.60;;;;;;4977226;28;20066;-76
2021/03/06 11:04:30;;;;;;;46.53;26.33;;;10.10;54.20;;;;;;4978562;28;20122;-76
2021/03/06 11:07:01;;;;;;;25.65;17.33;;;10.20;54.10;;;;;;4981615;28;20494;-75
2021/03/06 11:09:31;;;;;;;25.92;17.65;;;10.20;53.00;;;;;;4977359;28;20039;-75
2021/03/06 11:12:14;;;;;;;25.52;17.55;;;10.20;53.60;;;;;;4976715;28;20484;-78
2021/03/06 11:14:40;;;;;;;28.98;18.77;;;10.40;53.00;;;;;;4976089;28;20456;-76
2021/03/06 11:17:06;;;;;;;43.88;23.75;;;10.40;53.20;;;;;;4975266;28;20089;-76
2021/03/06 11:19:31;;;;;;;30.38;19.17;;;10.50;53.00;;;;;;4976048;28;20069;-76
2021/03/06 11:21:57;;;;;;;45.03;24.17;;;10.60;52.60;;;;;;4977225;28;20087;-76
2021/03/06 11:24:23;;;;;;;26.33;17.30;;;10.50;52.20;;;;;;4976387;28;20085;-76
2021/03/06 11:26:52;;;;;;;33.00;17.58;;;10.70;52.40;;;;;;4959695;28;20070;-76
2021/03/06 11:29:17;;;;;;;25.95;17.17;;;10.70;51.50;;;;;;4975638;28;20522;-76
2021/03/06 11:31:44;;;;;;;38.20;21.00;;;10.70;52.00;;;;;;4976798;28;20035;-76
2021/03/06 11:34:10;;;;;;;41.83;23.15;;;10.50;51.90;;;;;;4976545;28;20070;-76
2021/03/06 11:36:36;;;;;;;26.83;18.00;;;10.60;52.50;;;;;;4975146;28;20054;-76
2021/03/06 11:39:02;;;;;;;29.98;19.33;;;10.50;52.40;;;;;;4976243;28;20463;-77
2021/03/06 11:41:28;;;;;;;27.95;17.58;;;10.80;51.70;;;;;;4976027;28;20061;-77
2021/03/06 11:43:54;;;;;;;30.17;19.15;;;11.00;51.00;;;;;;4975661;28;20399;-76
2021/03/06 11:46:20;;;;;;;27.48;18.13;;;11.10;50.90;;;;;;4975053;28;20113;-77
2021/03/06 11:48:45;;;;;;;36.33;24.38;;;10.90;50.80;;;;;;4975535;28;20155;-77
2021/03/06 11:51:11;;;;;;;29.88;17.45;;;10.90;50.90;;;;;;4976309;28;20038;-76
2021/03/06 11:53:38;;;;;;;25.27;17.02;;;11.10;50.80;;;;;;4975533;28;20054;-77
2021/03/06 11:56:05;;;;;;;28.20;17.50;;;11.30;50.40;;;;;;4975561;28;20077;-77
2021/03/06 11:58:31;;;;;;;27.05;17.42;;;11.40;50.10;;;;;;4990388;28;20148;-77
2021/03/06 12:00:56;;;;;;;22.40;15.77;;;11.30;50.10;;;;;;4973994;28;20405;-76
2021/03/06 12:03:22;;;;;;;21.90;15.95;;;11.30;49.40;;;;;;4973696;28;20515;-78
2021/03/06 12:05:48;;;;;;;37.70;21.73;;;11.50;48.80;;;;;;4973933;28;20046;-75
2021/03/06 12:08:14;;;;;;;33.83;19.38;;;11.70;48.30;;;;;;4975574;28;20515;-76
2021/03/06 12:10:40;;;;;;;24.00;16.58;;;11.80;47.60;;;;;;4975094;28;20043;-78
2021/03/06 12:13:05;;;;;;;23.65;17.13;;;11.80;48.40;;;;;;4975011;28;20437;-75
2021/03/06 12:15:31;;;;;;;24.48;15.65;;;11.90;48.00;;;;;;4974564;28;20056;-75
2021/03/06 12:17:57;;;;;;;27.08;17.13;;;11.90;47.70;;;;;;4973727;28;20038;-76
2021/03/06 12:20:23;;;;;;;23.55;16.42;;;11.90;47.70;;;;;;4975250;28;20087;-76
2021/03/06 12:22:49;;;;;;;23.98;15.95;;;11.80;46.40;;;;;;4975175;28;20062;-76
2021/03/06 12:25:16;;;;;;;20.08;14.50;;;11.50;47.00;;;;;;4975681;28;20043;-76
2021/03/06 12:27:43;;;;;;;30.63;18.63;;;11.40;47.80;;;;;;4975441;28;20047;-76
2021/03/06 12:30:11;;;;;;;31.48;19.15;;;11.60;47.60;;;;;;4975179;28;20055;-76
2021/03/06 12:32:41;;;;;;;33.15;19.77;;;11.70;47.10;;;;;;4975031;28;20095;-76
2021/03/06 12:35:08;;;;;;;24.88;17.23;;;11.70;47.20;;;;;;4975545;28;20035;-75
2021/03/06 12:37:34;;;;;;;21.10;15.35;;;11.70;47.40;;;;;;4973983;28;20086;-76
2021/03/06 12:40:01;;;;;;;28.33;18.23;;;11.80;47.50;;;;;;4975392;28;20121;-75
2021/03/06 12:42:27;;;;;;;26.17;16.92;;;11.90;47.00;;;;;;4975562;28;20046;-76
2021/03/06 12:44:52;;;;;;;27.25;18.33;;;11.90;46.60;;;;;;4976047;28;20113;-76
2021/03/06 12:47:18;;;;;;;21.13;15.32;;;12.00;47.00;;;;;;4975992;28;20039;-76